createdAt,value
2023-02-19T00:01:24.428Z,99970.56
2023-02-19T00:06:17.241Z,99966.15
2023-02-19T00:11:13.951Z,99964.71
2023-02-19T00:16:20.794Z,99961.98
2023-02-19T00:21:17.200Z,99946.45
2023-02-19T00:26:18.604Z,99958.84
2023-02-19T00:31:24.362Z,99952.92
2023-02-19T00:36:18.594Z,99952.48
2023-02-19T00:41:21.923Z,99950.72
2023-02-19T00:46:15.225Z,99942.11
2023-02-19T00:51:08.303Z,99944.32
2023-02-19T00:56:01.376Z,99945.73
2023-02-19T01:00:54.493Z,99942.02
2023-02-19T01:05:47.723Z,99943.48
2023-02-19T01:10:41.176Z,99949.52
2023-02-19T01:15:35.156Z,99948.27
2023-02-19T01:20:28.833Z,99946.56
2023-02-19T01:25:21.702Z,99939.90
2023-02-19T01:30:14.901Z,99941.42
2023-02-19T01:35:07.962Z,99935.90
2023-02-19T01:40:00.748Z,99933.98
2023-02-19T01:45:20.159Z,99935.26
2023-02-19T01:50:13.110Z,99944.27
2023-02-19T01:55:09.900Z,99942.09
2023-02-19T02:00:13.222Z,99944.04
2023-02-19T02:05:14.749Z,99940.61
2023-02-19T02:10:21.390Z,99942.70
2023-02-19T02:15:16.437Z,99945.37
2023-02-19T02:20:27.741Z,99941.41
2023-02-19T02:25:50.388Z,99941.84
2023-02-19T02:30:58.814Z,99938.70
2023-02-19T02:35:54.177Z,99940.55
2023-02-19T02:40:49.321Z,99942.52
2023-02-19T02:45:43.176Z,99943.89
2023-02-19T02:51:24.197Z,99947.88
2023-02-19T02:56:31.431Z,99945.26
2023-02-19T03:02:12.089Z,99947.63
2023-02-19T03:07:10.571Z,99939.23
2023-02-19T03:12:24.228Z,99933.60
2023-02-19T03:17:45.439Z,99931.81
2023-02-19T03:22:40.011Z,99930.08
2023-02-19T03:27:36.465Z,99931.69
2023-02-19T03:32:35.539Z,99925.62
2023-02-19T03:37:34.335Z,99937.05
2023-02-19T03:42:45.486Z,99937.59
2023-02-19T03:47:59.252Z,99934.01
2023-02-19T03:52:57.171Z,99929.32
2023-02-19T03:58:17.818Z,99926.41
2023-02-19T04:03:28.016Z,99919.68
2023-02-19T04:08:24.743Z,99912.06
2023-02-19T04:13:30.682Z,99913.55
2023-02-19T04:18:29.825Z,99916.67
2023-02-19T04:23:26.818Z,99912.17
2023-02-19T04:28:19.783Z,99909.24
2023-02-19T04:33:12.526Z,99902.73
2023-02-19T04:38:05.328Z,99897.44
2023-02-19T04:42:58.113Z,99889.81
2023-02-19T04:47:50.934Z,99889.17
2023-02-19T04:52:43.690Z,99890.54
2023-02-19T04:57:37.001Z,99890.60
2023-02-19T05:02:29.772Z,99902.59
2023-02-19T05:07:22.575Z,99900.58
2023-02-19T05:12:15.343Z,99889.61
2023-02-19T05:17:08.149Z,99885.54
2023-02-19T05:22:00.918Z,99887.31
2023-02-19T05:26:53.679Z,99887.31
2023-02-19T05:31:47.724Z,99878.00
2023-02-19T05:36:40.742Z,99882.13
2023-02-19T05:41:33.628Z,99882.27
2023-02-19T05:46:29.767Z,99869.61
2023-02-19T05:51:24.783Z,99868.88
2023-02-19T05:56:32.591Z,99870.48
2023-02-19T06:01:28.336Z,99866.08
2023-02-19T06:06:21.950Z,99864.77
2023-02-19T06:11:14.757Z,99871.66
2023-02-19T06:16:09.423Z,99870.69
2023-02-19T06:21:03.855Z,99863.69
2023-02-19T06:25:57.089Z,99872.35
2023-02-19T06:30:51.917Z,99880.45
2023-02-19T06:35:44.714Z,99881.63
2023-02-19T06:40:37.827Z,99886.99
2023-02-19T06:45:30.588Z,99888.52
2023-02-19T06:50:23.378Z,99889.14
2023-02-19T06:55:16.301Z,99887.46
2023-02-19T07:00:10.162Z,99886.70
2023-02-19T07:05:03.347Z,99883.46
2023-02-19T07:09:56.121Z,99881.64
2023-02-19T07:14:49.007Z,99892.12
2023-02-19T07:19:41.799Z,99889.88
2023-02-19T07:24:34.616Z,99896.77
2023-02-19T07:29:27.437Z,99897.69
2023-02-19T07:34:22.446Z,99896.67
2023-02-19T07:39:16.272Z,99905.02
2023-02-19T07:44:09.109Z,99904.46
2023-02-19T07:49:01.917Z,99911.36
2023-02-19T07:53:54.695Z,99912.95
2023-02-19T07:58:47.519Z,99912.27
2023-02-19T08:03:40.790Z,99910.88
2023-02-19T08:08:33.659Z,99912.48
2023-02-19T08:13:28.350Z,99915.23
2023-02-19T08:18:25.124Z,99914.38
2023-02-19T08:23:18.435Z,99918.57
2023-02-19T08:28:15.361Z,99926.35
2023-02-19T08:33:09.570Z,99926.29
2023-02-19T08:38:02.557Z,99932.56
2023-02-19T08:42:55.335Z,99936.41
2023-02-19T08:47:48.431Z,99938.33
2023-02-19T08:52:41.222Z,99937.69
2023-02-19T08:57:38.763Z,99940.32
2023-02-19T09:02:31.613Z,99942.14
2023-02-19T09:07:24.418Z,99942.42
2023-02-19T09:12:17.204Z,99933.84
2023-02-19T09:17:10.496Z,99936.48
2023-02-19T09:22:04.577Z,99937.96
2023-02-19T09:27:00.302Z,99938.20
2023-02-19T09:31:56.731Z,99939.17
2023-02-19T09:36:52.873Z,99942.08
2023-02-19T09:41:49.848Z,99941.25
2023-02-19T09:46:49.032Z,99948.73
2023-02-19T09:51:48.544Z,99948.92
2023-02-19T09:56:41.432Z,99951.63
2023-02-19T10:01:38.996Z,99952.84
2023-02-19T10:06:38.166Z,99959.13
2023-02-19T10:11:30.971Z,99954.29
2023-02-19T10:16:29.274Z,99950.90
2023-02-19T10:21:27.601Z,99947.01
2023-02-19T10:26:20.959Z,99944.63
2023-02-19T10:31:25.289Z,99939.58
2023-02-19T10:36:40.934Z,99940.97
2023-02-19T10:41:33.836Z,99944.45
2023-02-19T10:46:34.408Z,99948.13
2023-02-19T10:51:42.397Z,99952.27
2023-02-19T10:56:35.334Z,99955.55
2023-02-19T11:01:28.169Z,99963.00
2023-02-19T11:06:28.135Z,99965.22
2023-02-19T11:11:29.688Z,99967.27
2023-02-19T11:16:22.810Z,99961.80
2023-02-19T11:21:33.276Z,99959.80
2023-02-19T11:26:29.051Z,99962.98
2023-02-19T11:31:27.627Z,99964.33
2023-02-19T11:36:30.032Z,99966.55
2023-02-19T11:41:45.892Z,99965.89
2023-02-19T11:47:25.648Z,99966.83
2023-02-19T11:52:28.141Z,99965.17
2023-02-19T11:57:43.323Z,99968.59
2023-02-19T12:03:00.149Z,99974.51
2023-02-19T12:08:11.555Z,99971.41
2023-02-19T12:13:27.038Z,99975.40
2023-02-19T12:18:34.693Z,99986.27
2023-02-19T12:24:05.511Z,99990.73
2023-02-19T12:29:07.375Z,99997.16
2023-02-19T12:34:17.369Z,99996.91
2023-02-19T12:39:23.045Z,100006.91
2023-02-19T12:44:30.839Z,100012.64
2023-02-19T12:49:29.707Z,100020.19
2023-02-19T12:54:34.365Z,100035.65
2023-02-19T12:59:45.920Z,100038.65
2023-02-19T13:05:03.515Z,100040.64
2023-02-19T13:10:05.000Z,100044.99
2023-02-19T13:15:18.896Z,100048.81
2023-02-19T13:20:33.633Z,100048.73
2023-02-19T13:25:44.656Z,100038.29
2023-02-19T13:30:43.437Z,100037.23
2023-02-19T13:36:12.996Z,100041.55
2023-02-19T13:41:06.079Z,100048.79
2023-02-19T13:46:02.500Z,100048.84
2023-02-19T13:51:13.806Z,100055.92
2023-02-19T13:56:34.244Z,100064.33
2023-02-19T14:01:49.194Z,100078.01
2023-02-19T14:07:04.153Z,100089.73
2023-02-19T14:12:06.515Z,100088.73
2023-02-19T14:17:09.252Z,100094.91
2023-02-19T14:22:02.082Z,100105.63
2023-02-19T14:26:58.299Z,100115.77
2023-02-19T14:31:51.165Z,100119.30
2023-02-19T14:36:53.602Z,100120.23
2023-02-19T14:41:50.995Z,100118.08
2023-02-19T14:47:09.174Z,100121.21
2023-02-19T14:52:08.111Z,100131.14
2023-02-19T14:57:04.008Z,100131.56
2023-02-19T15:02:21.174Z,100141.11
2023-02-19T15:07:24.738Z,100152.35
2023-02-19T15:12:22.932Z,100159.09
2023-02-19T15:17:31.156Z,100163.91
2023-02-19T15:22:28.581Z,100172.02
2023-02-19T15:27:36.277Z,100180.06
2023-02-19T15:32:39.777Z,100189.52
2023-02-19T15:37:48.622Z,100194.75
2023-02-19T15:42:50.919Z,100202.35
2023-02-19T15:48:02.172Z,100207.55
2023-02-19T15:53:00.617Z,100214.32
2023-02-19T15:58:09.719Z,100220.13
2023-02-19T16:03:03.240Z,100227.21
2023-02-19T16:08:41.039Z,100228.92
2023-02-19T16:13:38.642Z,100241.58
2023-02-19T16:18:30.704Z,100248.41
2023-02-19T16:23:24.977Z,100258.64
2023-02-19T16:28:24.815Z,100270.19
2023-02-19T16:33:22.208Z,100282.81
2023-02-19T16:38:18.337Z,100294.78
2023-02-19T16:43:16.545Z,100301.30
2023-02-19T16:48:09.449Z,100305.59
2023-02-19T16:53:03.239Z,100309.71
2023-02-19T16:57:54.963Z,100314.39
2023-02-19T17:02:49.301Z,100311.63
2023-02-19T17:07:40.716Z,100318.17
2023-02-19T17:12:32.229Z,100315.82
2023-02-19T17:17:40.680Z,100323.05
2023-02-19T17:22:32.359Z,100320.61
2023-02-19T17:27:23.818Z,100327.77
2023-02-19T17:32:29.660Z,100330.46
2023-02-19T17:37:40.451Z,100336.22
2023-02-19T17:42:37.033Z,100346.34
2023-02-19T17:47:28.512Z,100360.96
2023-02-19T17:52:31.071Z,100370.80
2023-02-19T17:57:22.780Z,100379.77
2023-02-19T18:02:16.726Z,100381.30
2023-02-19T18:07:08.349Z,100390.48
2023-02-19T18:11:59.773Z,100399.88
2023-02-19T18:17:26.775Z,100411.83
2023-02-19T18:22:36.252Z,100422.30
2023-02-19T18:28:01.792Z,100426.69
2023-02-19T18:33:30.381Z,100437.57
2023-02-19T18:38:24.383Z,100436.06
2023-02-19T18:43:15.924Z,100435.02
2023-02-19T18:48:19.893Z,100439.60
2023-02-19T18:53:16.861Z,100438.29
2023-02-19T18:58:08.575Z,100439.20
2023-02-19T19:03:12.913Z,100440.59
2023-02-19T19:08:18.317Z,100448.86
2023-02-19T19:13:12.091Z,100459.49
2023-02-19T19:18:05.242Z,100470.30
2023-02-19T19:22:59.650Z,100479.47
2023-02-19T19:27:54.780Z,100489.79
2023-02-19T19:32:50.207Z,100485.10
2023-02-19T19:37:41.625Z,100490.19
2023-02-19T19:42:33.023Z,100500.17
2023-02-19T19:47:24.994Z,100511.12
2023-02-19T19:52:16.405Z,100515.43
2023-02-19T19:57:07.834Z,100523.23
2023-02-19T20:02:02.069Z,100523.73
2023-02-19T20:06:53.605Z,100525.00
2023-02-19T20:11:50.331Z,100530.83
2023-02-19T20:16:46.875Z,100529.39
2023-02-19T20:21:38.395Z,100528.71
2023-02-19T20:26:31.487Z,100531.06
2023-02-19T20:31:25.653Z,100534.66
2023-02-19T20:36:20.255Z,100532.11
2023-02-19T20:41:12.443Z,100547.23
2023-02-19T20:46:04.277Z,100555.83
2023-02-19T20:51:26.088Z,100566.83
2023-02-19T20:56:17.555Z,100577.63
2023-02-19T21:01:11.240Z,100591.19
2023-02-19T21:06:02.757Z,100587.08
2023-02-19T21:10:55.685Z,100587.71
2023-02-19T21:15:49.984Z,100590.66
2023-02-19T21:20:41.417Z,100593.28
2023-02-19T21:25:33.279Z,100603.86
2023-02-19T21:30:24.994Z,100613.47
2023-02-19T21:35:16.531Z,100609.05
2023-02-19T21:40:18.710Z,100601.58
2023-02-19T21:45:10.358Z,100606.67
2023-02-19T21:50:02.111Z,100610.71
2023-02-19T21:55:00.738Z,100614.88
2023-02-19T21:59:52.245Z,100619.52
2023-02-19T22:04:43.631Z,100620.45
2023-02-19T22:09:35.023Z,100619.74
2023-02-19T22:14:26.452Z,100622.17
2023-02-19T22:19:17.876Z,100624.20
2023-02-19T22:24:20.901Z,100630.73
2023-02-19T22:29:14.675Z,100642.65
2023-02-19T22:34:09.970Z,100650.77
2023-02-19T22:39:01.727Z,100653.36
2023-02-19T22:43:58.314Z,100649.81
2023-02-19T22:48:50.081Z,100637.37
2023-02-19T22:53:50.462Z,100637.44
2023-02-19T22:58:42.678Z,100647.77
2023-02-19T23:03:34.126Z,100635.15
2023-02-19T23:08:25.523Z,100643.45
2023-02-19T23:13:17.026Z,100636.15
2023-02-19T23:18:08.497Z,100629.64
2023-02-19T23:23:00.814Z,100619.83
2023-02-19T23:28:06.296Z,100635.61
2023-02-19T23:32:57.743Z,100630.08
2023-02-19T23:37:49.386Z,100648.45
2023-02-19T23:42:40.940Z,100650.43
2023-02-19T23:47:32.362Z,100653.02
2023-02-19T23:52:24.129Z,100649.16
2023-02-19T23:57:16.026Z,100648.11
